Time;durP1;ratioP1;P1;durP2;ratioP2;P2;SDS_P1;SDS_P2;PMS_P1;PMS_P2;Temp;Humidity;BMP_temperature;BMP_pressure;BME280_temperature;BME280_humidity;BME280_pressure;Samples;Min_cycle;Max_cycle;Signal;HPM_P1;HPM_P2
2023/06/17 00:00:28;;;;;;;0.47;0.47;;;15.40;99.90;;;;;;4401558;32;20090;-77
2023/06/17 00:02:53;;;;;;;0.30;0.30;;;15.50;99.90;;;;;;4402976;32;20127;-77
2023/06/17 00:05:21;;;;;;;0.57;0.57;;;15.50;99.90;;;;;;4399588;32;20196;-77
2023/06/17 00:07:47;;;;;;;0.50;0.50;;;15.40;99.90;;;;;;4401646;32;20061;-77
2023/06/17 00:10:12;;;;;;;0.35;0.35;;;15.40;99.90;;;;;;4402603;32;20086;-77
2023/06/17 00:12:38;;;;;;;0.25;0.25;;;15.40;99.90;;;;;;4401272;32;20404;-77
2023/06/17 00:15:06;;;;;;;0.30;0.30;;;15.40;99.90;;;;;;4401193;32;20132;-77
2023/06/17 00:17:32;;;;;;;0.70;0.70;;;15.20;99.90;;;;;;4401005;32;20078;-77
2023/06/17 00:20:07;;;;;;;0.40;0.40;;;15.10;99.90;;;;;;4400438;32;20085;-77
2023/06/17 00:22:34;;;;;;;0.40;0.40;;;15.10;99.90;;;;;;4403103;32;20438;-77
2023/06/17 00:25:02;;;;;;;0.52;0.52;;;15.10;99.90;;;;;;4401254;32;20454;-77
2023/06/17 00:27:27;;;;;;;0.30;0.30;;;15.10;99.90;;;;;;4401286;32;20124;-77
2023/06/17 00:29:53;;;;;;;0.55;0.55;;;15.10;99.90;;;;;;4402854;32;20077;-77
2023/06/17 00:32:19;;;;;;;0.47;0.47;;;15.10;99.90;;;;;;4399587;32;20071;-76
2023/06/17 00:34:44;;;;;;;0.85;0.68;;;15.20;99.90;;;;;;4398272;32;20082;-77
2023/06/17 00:37:10;;;;;;;0.40;0.40;;;15.10;99.90;;;;;;4399021;32;20070;-77
2023/06/17 00:39:35;;;;;;;0.30;0.30;;;15.20;99.90;;;;;;4401610;32;20181;-77
2023/06/17 00:42:01;;;;;;;0.40;0.40;;;15.10;99.90;;;;;;4400236;32;20058;-77
2023/06/17 00:44:27;;;;;;;0.40;0.40;;;15.10;99.90;;;;;;4400649;32;20129;-78
2023/06/17 00:46:54;;;;;;;0.22;0.22;;;15.10;99.90;;;;;;4402561;32;20136;-77
2023/06/17 00:49:28;;;;;;;0.45;0.45;;;15.10;99.90;;;;;;4403372;32;20178;-77
2023/06/17 00:51:54;;;;;;;0.50;0.50;;;15.10;99.90;;;;;;4402630;32;20116;-78
2023/06/17 00:54:20;;;;;;;0.50;0.50;;;15.30;99.90;;;;;;4401649;32;20543;-77
2023/06/17 00:56:46;;;;;;;0.40;0.40;;;15.30;99.90;;;;;;4399784;32;20062;-77
2023/06/17 00:59:13;;;;;;;3.05;0.47;;;15.40;99.90;;;;;;4400970;32;20597;-77
2023/06/17 01:01:45;;;;;;;0.30;0.30;;;15.40;99.90;;;;;;4400397;32;20063;-77
2023/06/17 01:04:12;;;;;;;0.40;0.40;;;15.40;99.90;;;;;;4405534;32;20464;-77
2023/06/17 01:06:59;;;;;;;0.62;0.40;;;15.40;99.90;;;;;;4399849;32;20057;-76
2023/06/17 01:09:29;;;;;;;0.50;0.50;;;15.40;99.90;;;;;;4384198;32;20094;-77
2023/06/17 01:11:57;;;;;;;0.40;0.40;;;15.40;99.90;;;;;;4399845;32;20543;-76
2023/06/17 01:14:23;;;;;;;0.50;0.50;;;15.30;99.90;;;;;;4397536;32;20163;-76
2023/06/17 01:16:51;;;;;;;0.37;0.37;;;15.30;99.90;;;;;;4398692;32;20086;-76
2023/06/17 01:19:22;;;;;;;0.57;0.57;;;15.30;99.90;;;;;;4401486;32;20112;-76
2023/06/17 01:21:51;;;;;;;0.60;0.60;;;15.30;99.90;;;;;;4398863;32;20168;-76
2023/06/17 01:24:30;;;;;;;1.10;0.60;;;15.20;99.90;;;;;;4399974;32;20070;-76
2023/06/17 01:26:59;;;;;;;0.35;0.35;;;15.20;99.90;;;;;;4397328;32;20465;-76
2023/06/17 01:29:29;;;;;;;1.20;0.90;;;15.10;99.90;;;;;;4401342;32;20407;-76
2023/06/17 01:31:57;;;;;;;1.10;0.50;;;15.10;99.90;;;;;;4394971;32;20081;-76
2023/06/17 01:34:45;;;;;;;0.43;0.43;;;15.10;99.90;;;;;;4392963;32;20435;-77
2023/06/17 01:37:11;;;;;;;0.52;0.50;;;15.30;99.90;;;;;;4378811;32;20105;-76
2023/06/17 01:39:44;;;;;;;0.40;0.40;;;15.30;99.90;;;;;;4398502;32;20106;-77
2023/06/17 01:42:24;;;;;;;0.50;0.50;;;15.30;99.90;;;;;;4397022;32;20234;-77
2023/06/17 01:44:51;;;;;;;0.40;0.40;;;15.20;99.90;;;;;;4396614;32;20086;-76
2023/06/17 01:47:17;;;;;;;1.10;1.00;;;15.10;99.90;;;;;;4397045;32;20075;-76
2023/06/17 01:49:43;;;;;;;3.62;1.05;;;15.10;99.90;;;;;;4400299;32;20082;-75
2023/06/17 01:52:09;;;;;;;0.50;0.50;;;15.20;99.90;;;;;;4397110;32;20083;-77
2023/06/17 01:54:35;;;;;;;1.50;0.55;;;15.10;99.90;;;;;;4397016;32;20114;-76
2023/06/17 01:57:00;;;;;;;0.40;0.40;;;14.90;99.90;;;;;;4396984;32;20078;-76
2023/06/17 01:59:26;;;;;;;0.40;0.40;;;15.00;99.90;;;;;;4400622;32;20055;-76
2023/06/17 02:01:52;;;;;;;0.45;0.43;;;15.00;99.90;;;;;;4394867;32;20315;-76
2023/06/17 02:04:17;;;;;;;0.70;0.60;;;15.10;99.90;;;;;;4399547;32;20220;-76
2023/06/17 02:06:43;;;;;;;0.65;0.55;;;15.00;99.90;;;;;;4400157;32;20058;-77
2023/06/17 02:09:08;;;;;;;1.45;1.05;;;15.10;99.90;;;;;;4403435;32;20106;-76
2023/06/17 02:11:34;;;;;;;0.65;0.60;;;15.10;99.90;;;;;;4400370;32;20066;-76
2023/06/17 02:14:00;;;;;;;0.43;0.43;;;15.20;99.90;;;;;;4400192;32;20813;-76
2023/06/17 02:16:25;;;;;;;0.82;0.60;;;15.10;99.90;;;;;;4396999;32;20085;-77
2023/06/17 02:18:53;;;;;;;0.40;0.40;;;15.00;99.90;;;;;;4398105;32;20169;-76
2023/06/17 02:21:19;;;;;;;0.47;0.47;;;14.90;99.90;;;;;;4397615;32;20070;-77
2023/06/17 02:23:48;;;;;;;0.60;0.60;;;14.90;99.90;;;;;;4401215;32;20140;-76
2023/06/17 02:26:16;;;;;;;0.43;0.35;;;15.00;99.90;;;;;;4400472;32;20062;-76
2023/06/17 02:28:42;;;;;;;0.40;0.40;;;14.90;99.90;;;;;;4398335;32;20095;-76
2023/06/17 02:31:08;;;;;;;1.00;0.73;;;14.90;99.90;;;;;;4398414;32;20446;-76
2023/06/17 02:33:34;;;;;;;0.60;0.50;;;14.80;99.90;;;;;;4402042;32;20073;-75
2023/06/17 02:35:59;;;;;;;0.57;0.57;;;14.70;99.90;;;;;;4402846;32;21205;-76
2023/06/17 02:38:26;;;;;;;4.28;1.75;;;14.90;99.90;;;;;;4403438;32;20090;-76
2023/06/17 02:40:51;;;;;;;5.62;1.80;;;14.90;99.90;;;;;;4401307;32;20050;-76
2023/06/17 02:43:18;;;;;;;0.50;0.50;;;15.00;99.90;;;;;;4398864;32;20518;-76
2023/06/17 02:45:43;;;;;;;0.47;0.47;;;15.00;99.90;;;;;;4398952;32;20054;-76
2023/06/17 02:48:09;;;;;;;0.95;0.52;;;14.90;99.90;;;;;;4402094;32;20070;-76
2023/06/17 02:50:36;;;;;;;0.60;0.60;;;14.80;99.90;;;;;;4400359;32;20073;-76
2023/06/17 02:53:04;;;;;;;0.30;0.30;;;14.90;99.90;;;;;;4399770;32;20138;-76
2023/06/17 02:55:30;;;;;;;3.72;0.85;;;15.00;99.90;;;;;;4399930;32;20527;-76
2023/06/17 02:57:55;;;;;;;1.65;0.40;;;14.90;99.90;;;;;;4399411;32;20090;-76
2023/06/17 03:00:22;;;;;;;0.40;0.40;;;15.00;99.90;;;;;;4401292;32;20090;-77
2023/06/17 03:02:48;;;;;;;0.40;0.40;;;15.00;99.90;;;;;;4400054;32;20136;-76
2023/06/17 03:05:14;;;;;;;0.43;0.43;;;15.00;99.90;;;;;;4402319;32;21255;-76
2023/06/17 03:07:40;;;;;;;0.50;0.50;;;15.00;99.90;;;;;;4400662;32;20066;-76
2023/06/17 03:10:08;;;;;;;0.32;0.32;;;15.00;99.90;;;;;;4400868;32;20071;-77
2023/06/17 03:12:33;;;;;;;0.50;0.50;;;15.10;99.90;;;;;;4404654;32;20069;-77
2023/06/17 03:14:58;;;;;;;0.30;0.30;;;15.00;99.90;;;;;;4405170;32;20460;-77
2023/06/17 03:17:25;;;;;;;0.80;0.73;;;15.00;99.90;;;;;;4402144;32;20129;-77
2023/06/17 03:19:51;;;;;;;0.30;0.30;;;14.90;99.90;;;;;;4402403;32;20089;-77
2023/06/17 03:22:17;;;;;;;0.50;0.50;;;14.90;99.90;;;;;;4402129;32;20124;-77
2023/06/17 03:24:42;;;;;;;0.52;0.52;;;15.00;99.90;;;;;;4405097;32;20079;-77
2023/06/17 03:27:08;;;;;;;0.35;0.35;;;14.90;99.90;;;;;;4402936;32;20065;-77
2023/06/17 03:29:35;;;;;;;0.60;0.55;;;14.90;99.90;;;;;;4404342;32;20476;-77
2023/06/17 03:32:00;;;;;;;0.30;0.30;;;15.00;99.90;;;;;;4403725;32;20077;-77
2023/06/17 03:34:27;;;;;;;0.55;0.55;;;15.00;99.90;;;;;;4404172;32;20370;-77
2023/06/17 03:36:56;;;;;;;0.52;0.52;;;15.00;99.90;;;;;;4401359;32;20118;-77
2023/06/17 03:39:22;;;;;;;0.60;0.60;;;15.00;99.90;;;;;;4405304;32;20126;-77
2023/06/17 03:41:47;;;;;;;1.77;0.55;;;15.00;99.90;;;;;;4404226;32;20541;-77
2023/06/17 03:44:13;;;;;;;2.17;1.20;;;15.10;99.90;;;;;;4402398;32;20514;-77
2023/06/17 03:46:41;;;;;;;0.60;0.60;;;15.10;99.90;;;;;;4401552;32;20081;-77
2023/06/17 03:49:07;;;;;;;1.85;0.80;;;15.00;99.90;;;;;;4401333;32;20089;-77
2023/06/17 03:51:33;;;;;;;1.65;0.60;;;14.90;99.90;;;;;;4400622;32;20113;-76
2023/06/17 03:53:59;;;;;;;0.40;0.40;;;14.80;99.90;;;;;;4400936;32;20569;-76
2023/06/17 03:56:26;;;;;;;0.60;0.45;;;14.90;99.90;;;;;;4398833;32;21365;-76
2023/06/17 03:58:53;;;;;;;0.60;0.60;;;14.90;99.90;;;;;;4398969;32;20572;-76
2023/06/17 04:01:19;;;;;;;0.40;0.40;;;15.00;99.90;;;;;;4400702;32;20085;-77
2023/06/17 04:03:45;;;;;;;0.50;0.50;;;15.10;99.90;;;;;;4401684;32;20099;-76
2023/06/17 04:06:10;;;;;;;0.50;0.50;;;15.20;99.90;;;;;;4400900;32;20133;-77
2023/06/17 04:08:37;;;;;;;0.40;0.40;;;15.10;99.90;;;;;;4400445;32;20569;-76
2023/06/17 04:11:03;;;;;;;0.75;0.43;;;15.10;99.90;;;;;;4400408;32;20506;-76
2023/06/17 04:13:28;;;;;;;0.40;0.40;;;15.10;99.90;;;;;;4398717;32;20082;-76
2023/06/17 04:15:54;;;;;;;0.62;0.62;;;15.00;99.90;;;;;;4399743;32;20085;-76
2023/06/17 04:18:19;;;;;;;0.73;0.73;;;15.10;99.90;;;;;;4401974;32;20074;-76
2023/06/17 04:20:45;;;;;;;2.60;0.70;;;15.10;99.90;;;;;;4399364;32;20427;-77
2023/06/17 04:23:10;;;;;;;0.62;0.55;;;15.10;99.90;;;;;;4398620;32;20101;-76
2023/06/17 04:25:36;;;;;;;0.45;0.45;;;15.10;99.90;;;;;;4397893;32;20136;-77
2023/06/17 04:28:06;;;;;;;0.52;0.52;;;15.10;99.90;;;;;;4401326;32;20090;-76
2023/06/17 04:30:33;;;;;;;0.50;0.50;;;15.20;99.90;;;;;;4399755;32;20585;-76
2023/06/17 04:32:59;;;;;;;1.85;0.60;;;15.20;99.90;;;;;;4399379;32;20758;-77
2023/06/17 04:35:26;;;;;;;0.73;0.73;;;15.30;99.90;;;;;;4399568;32;20083;-76
2023/06/17 04:37:53;;;;;;;1.08;0.70;;;15.10;99.90;;;;;;4398046;32;20070;-76
2023/06/17 04:40:21;;;;;;;0.40;0.40;;;15.10;99.90;;;;;;4400768;32;20087;-76
2023/06/17 04:42:48;;;;;;;0.60;0.60;;;15.10;99.90;;;;;;4401380;32;20077;-76
2023/06/17 04:45:14;;;;;;;1.05;1.02;;;15.10;99.90;;;;;;4401096;32;20105;-76
2023/06/17 04:47:40;;;;;;;0.37;0.37;;;15.10;99.90;;;;;;4398371;32;20201;-76
2023/06/17 04:50:05;;;;;;;0.80;0.80;;;15.00;99.90;;;;;;4398841;32;20522;-76
2023/06/17 04:52:31;;;;;;;0.73;0.47;;;15.10;99.90;;;;;;4398170;32;20074;-76
2023/06/17 04:54:57;;;;;;;0.40;0.40;;;15.00;99.90;;;;;;4398106;32;20106;-76
2023/06/17 04:57:22;;;;;;;0.40;0.40;;;15.10;99.90;;;;;;4396897;32;20636;-76
2023/06/17 04:59:48;;;;;;;4.47;1.87;;;15.10;99.90;;;;;;4398527;32;20153;-76
2023/06/17 05:02:14;;;;;;;0.37;0.37;;;15.20;99.90;;;;;;4397672;32;20128;-76
2023/06/17 05:04:40;;;;;;;0.60;0.60;;;15.20;99.90;;;;;;4400457;32;20069;-76
2023/06/17 05:07:05;;;;;;;1.40;0.95;;;15.20;99.90;;;;;;4401175;32;20156;-76
2023/06/17 05:09:31;;;;;;;1.20;0.75;;;15.30;99.90;;;;;;4398786;32;20090;-76
2023/06/17 05:11:56;;;;;;;1.37;1.23;;;15.30;99.90;;;;;;4397080;32;20085;-76
2023/06/17 05:14:22;;;;;;;0.70;0.70;;;15.40;99.90;;;;;;4399782;32;20542;-76
2023/06/17 05:16:47;;;;;;;0.30;0.30;;;15.50;99.90;;;;;;4398377;32;20069;-76
2023/06/17 05:19:13;;;;;;;1.23;0.60;;;15.50;99.90;;;;;;4398681;32;20158;-76
2023/06/17 05:21:38;;;;;;;0.68;0.47;;;15.40;99.90;;;;;;4396663;32;20089;-76
2023/06/17 05:24:04;;;;;;;0.50;0.50;;;15.50;99.90;;;;;;4398441;32;20070;-77
2023/06/17 05:26:30;;;;;;;3.22;1.33;;;15.50;99.90;;;;;;4398882;32;20082;-76
2023/06/17 05:28:55;;;;;;;0.65;0.65;;;15.60;99.90;;;;;;4398244;32;20086;-76
2023/06/17 05:31:21;;;;;;;0.77;0.77;;;15.70;99.90;;;;;;4400107;32;20134;-76
2023/06/17 05:33:46;;;;;;;6.65;1.45;;;15.60;99.90;;;;;;4401353;32;20062;-76
2023/06/17 05:36:12;;;;;;;2.28;0.82;;;15.70;99.90;;;;;;4399183;32;20138;-76
2023/06/17 05:38:38;;;;;;;0.62;0.60;;;15.90;99.90;;;;;;4397501;32;20074;-76
2023/06/17 05:41:03;;;;;;;1.67;0.70;;;15.80;99.90;;;;;;4398677;32;20124;-77
2023/06/17 05:43:29;;;;;;;3.85;1.25;;;15.80;99.90;;;;;;4399344;32;20487;-76
2023/06/17 05:45:54;;;;;;;2.53;1.20;;;15.80;99.90;;;;;;4395167;32;20078;-76
2023/06/17 05:48:20;;;;;;;5.55;0.95;;;15.90;99.90;;;;;;4397157;32;20105;-76
2023/06/17 05:50:45;;;;;;;5.47;2.17;;;16.10;99.90;;;;;;4400857;32;20085;-76
2023/06/17 05:53:11;;;;;;;0.82;0.82;;;16.10;99.90;;;;;;4399419;32;20073;-76
2023/06/17 05:55:36;;;;;;;1.00;0.75;;;16.20;99.90;;;;;;4397054;32;20105;-76
2023/06/17 05:58:02;;;;;;;1.08;0.88;;;16.20;99.90;;;;;;4399594;32;20093;-75
2023/06/17 06:00:27;;;;;;;3.37;1.00;;;16.20;99.90;;;;;;4398118;32;20101;-75
2023/06/17 06:02:53;;;;;;;2.37;1.17;;;16.20;99.90;;;;;;4398969;32;20114;-76
2023/06/17 06:05:18;;;;;;;0.90;0.77;;;16.20;99.90;;;;;;4399239;32;20128;-76
2023/06/17 06:07:44;;;;;;;2.15;1.10;;;16.20;99.90;;;;;;4398061;32;20070;-76
2023/06/17 06:10:10;;;;;;;1.45;0.90;;;16.20;99.90;;;;;;4397316;32;20089;-75
2023/06/17 06:12:36;;;;;;;1.60;0.80;;;16.20;99.90;;;;;;4398218;32;20094;-76
2023/06/17 06:15:03;;;;;;;0.62;0.62;;;16.30;99.90;;;;;;4397004;32;20086;-75
2023/06/17 06:17:29;;;;;;;2.33;1.20;;;16.40;99.90;;;;;;4399196;32;20073;-76
2023/06/17 06:19:55;;;;;;;1.55;0.85;;;16.50;99.90;;;;;;4398820;32;20090;-75
2023/06/17 06:22:22;;;;;;;1.85;1.08;;;16.40;99.90;;;;;;4398612;32;20066;-77
2023/06/17 06:24:49;;;;;;;0.80;0.80;;;16.50;99.90;;;;;;4399627;32;20082;-78
2023/06/17 06:27:14;;;;;;;2.62;0.77;;;16.50;99.90;;;;;;4398090;32;20058;-77
2023/06/17 06:29:40;;;;;;;1.70;1.10;;;16.40;99.90;;;;;;4400359;32;20121;-77
2023/06/17 06:32:07;;;;;;;1.62;0.93;;;16.50;99.90;;;;;;4399529;32;20145;-77
2023/06/17 06:34:33;;;;;;;2.53;1.17;;;16.50;99.90;;;;;;4400305;32;20098;-77
2023/06/17 06:36:59;;;;;;;1.52;1.10;;;16.60;99.90;;;;;;4397929;32;20058;-75
2023/06/17 06:39:25;;;;;;;0.70;0.70;;;16.50;99.90;;;;;;4399291;32;20553;-77
2023/06/17 06:41:52;;;;;;;3.55;0.90;;;16.60;99.90;;;;;;4402412;32;20090;-77
2023/06/17 06:44:18;;;;;;;0.68;0.68;;;16.60;99.90;;;;;;4401733;32;20062;-77
2023/06/17 06:46:44;;;;;;;3.40;1.10;;;16.60;99.90;;;;;;4400337;32;20093;-77
2023/06/17 06:49:10;;;;;;;0.77;0.77;;;16.70;99.90;;;;;;4401805;32;20129;-77
2023/06/17 06:51:36;;;;;;;0.80;0.80;;;16.70;99.90;;;;;;4398494;32;20491;-76
2023/06/17 06:54:02;;;;;;;1.08;0.85;;;16.80;99.90;;;;;;4401791;32;20129;-76
2023/06/17 06:56:28;;;;;;;1.33;0.85;;;16.80;99.90;;;;;;4398850;32;20193;-77
2023/06/17 06:58:56;;;;;;;0.70;0.70;;;16.80;99.90;;;;;;4405230;32;20473;-77
2023/06/17 07:01:22;;;;;;;3.30;0.95;;;16.80;99.90;;;;;;4399933;32;20170;-77
2023/06/17 07:03:50;;;;;;;0.62;0.62;;;16.80;99.90;;;;;;4397205;32;20148;-77
2023/06/17 07:06:18;;;;;;;1.17;0.90;;;16.80;99.90;;;;;;4397655;32;20178;-76
2023/06/17 07:08:44;;;;;;;0.65;0.65;;;16.90;99.90;;;;;;4397078;32;20085;-76
2023/06/17 07:11:11;;;;;;;1.83;0.73;;;17.00;99.90;;;;;;4397985;32;20086;-77
2023/06/17 07:13:36;;;;;;;0.62;0.62;;;17.00;99.90;;;;;;4400404;32;20613;-77
2023/06/17 07:16:02;;;;;;;1.45;1.35;;;17.10;99.90;;;;;;4399234;32;20137;-76
2023/06/17 07:18:27;;;;;;;0.65;0.60;;;17.20;99.90;;;;;;4403280;32;20748;-77
2023/06/17 07:20:53;;;;;;;2.12;1.55;;;17.10;99.90;;;;;;4401247;32;20066;-77
2023/06/17 07:23:19;;;;;;;1.62;0.82;;;17.00;99.90;;;;;;4398270;32;20082;-76
2023/06/17 07:25:44;;;;;;;4.80;1.05;;;17.10;99.90;;;;;;4401634;32;20081;-77
2023/06/17 07:28:12;;;;;;;23.87;2.75;;;17.10;99.90;;;;;;4402798;32;20089;-76
2023/06/17 07:30:37;;;;;;;3.17;1.17;;;17.00;99.90;;;;;;4403543;32;20411;-76
2023/06/17 07:33:03;;;;;;;2.55;0.82;;;17.10;99.90;;;;;;4403614;32;20093;-77
2023/06/17 07:35:29;;;;;;;2.67;0.60;;;17.10;99.90;;;;;;4402671;32;20829;-77
2023/06/17 07:37:54;;;;;;;0.60;0.60;;;17.20;99.90;;;;;;4401236;32;20094;-76
2023/06/17 07:40:20;;;;;;;0.73;0.73;;;17.10;99.90;;;;;;4401405;32;20497;-76
2023/06/17 07:42:45;;;;;;;1.20;1.00;;;17.10;99.90;;;;;;4402274;32;20114;-76
2023/06/17 07:45:11;;;;;;;0.90;0.82;;;17.30;99.90;;;;;;4398625;32;20085;-76
2023/06/17 07:47:39;;;;;;;1.95;1.15;;;17.40;99.90;;;;;;4402688;32;20131;-77
2023/06/17 07:50:08;;;;;;;1.05;0.98;;;17.40;99.90;;;;;;4397830;32;20419;-77
2023/06/17 07:52:35;;;;;;;0.77;0.77;;;17.50;99.90;;;;;;4398762;32;20089;-77
2023/06/17 07:55:02;;;;;;;0.73;0.70;;;17.40;99.90;;;;;;4400574;32;20121;-76
2023/06/17 07:57:28;;;;;;;2.72;0.62;;;17.50;99.90;;;;;;4400340;32;20193;-78
2023/06/17 07:59:53;;;;;;;0.60;0.60;;;17.60;99.90;;;;;;4402517;32;20128;-76
2023/06/17 08:02:19;;;;;;;0.95;0.70;;;17.60;99.90;;;;;;4400955;32;20086;-76
2023/06/17 08:04:45;;;;;;;0.62;0.62;;;17.70;99.90;;;;;;4402366;32;20098;-77
2023/06/17 08:07:11;;;;;;;0.70;0.62;;;17.70;99.90;;;;;;4401146;32;20089;-76
2023/06/17 08:09:37;;;;;;;1.35;0.52;;;17.70;99.90;;;;;;4403075;32;20136;-75
2023/06/17 08:12:15;;;;;;;1.10;0.95;;;17.90;99.90;;;;;;4401061;32;20066;-76
2023/06/17 08:14:40;;;;;;;0.62;0.62;;;17.90;99.90;;;;;;4403746;32;20087;-76
2023/06/17 08:17:06;;;;;;;2.05;0.80;;;18.10;99.90;;;;;;4401774;32;20093;-76
2023/06/17 08:19:33;;;;;;;1.05;0.88;;;18.00;99.90;;;;;;4404784;32;20125;-76
2023/06/17 08:22:02;;;;;;;4.47;0.70;;;18.10;99.90;;;;;;4403334;32;20094;-75
2023/06/17 08:24:28;;;;;;;1.12;0.90;;;18.10;99.90;;;;;;4401491;32;20070;-77
2023/06/17 08:26:54;;;;;;;0.60;0.60;;;18.20;99.90;;;;;;4401619;32;20078;-76
2023/06/17 08:29:20;;;;;;;1.00;0.88;;;18.20;99.90;;;;;;4400413;32;20310;-77
2023/06/17 08:31:48;;;;;;;1.85;1.10;;;18.60;99.90;;;;;;4401041;32;20082;-77
2023/06/17 08:34:15;;;;;;;0.57;0.57;;;19.00;99.90;;;;;;4402193;32;20058;-76
2023/06/17 08:36:43;;;;;;;0.47;0.47;;;19.20;99.90;;;;;;4401791;32;20069;-77
2023/06/17 08:39:08;;;;;;;2.12;0.85;;;19.20;99.90;;;;;;4401274;32;20133;-75
2023/06/17 08:41:37;;;;;;;1.08;0.98;;;19.30;99.90;;;;;;4400338;32;20432;-76
2023/06/17 08:44:05;;;;;;;0.90;0.82;;;19.30;99.90;;;;;;4400658;32;20137;-76
2023/06/17 08:46:31;;;;;;;0.77;0.60;;;19.20;99.90;;;;;;4402628;32;20070;-75
2023/06/17 08:48:58;;;;;;;0.52;0.52;;;19.20;99.90;;;;;;4400016;32;20102;-76
2023/06/17 08:51:24;;;;;;;2.78;0.93;;;19.30;99.90;;;;;;4403584;32;21574;-75
2023/06/17 08:53:51;;;;;;;1.17;0.60;;;19.40;99.90;;;;;;4403173;32;20120;-75
2023/06/17 08:56:18;;;;;;;1.55;0.70;;;19.40;99.90;;;;;;4400373;32;20066;-75
2023/06/17 08:58:44;;;;;;;1.55;0.73;;;19.30;99.90;;;;;;4401364;32;20464;-76
2023/06/17 09:01:17;;;;;;;0.70;0.60;;;19.20;99.90;;;;;;4402601;32;20074;-76
2023/06/17 09:03:43;;;;;;;2.25;0.70;;;19.30;99.90;;;;;;4399555;32;20070;-76
2023/06/17 09:06:25;;;;;;;1.05;0.70;;;19.30;99.90;;;;;;4401343;32;20078;-75
2023/06/17 09:08:51;;;;;;;0.85;0.65;;;19.30;99.90;;;;;;4400205;32;20089;-75
2023/06/17 09:11:20;;;;;;;0.50;0.50;;;19.40;99.90;;;;;;4402178;32;20118;-75
2023/06/17 09:13:51;;;;;;;1.23;0.60;;;19.40;99.90;;;;;;4400841;32;20090;-75
2023/06/17 09:16:18;;;;;;;1.67;0.65;;;19.40;99.90;;;;;;4402336;32;20127;-75
2023/06/17 09:18:44;;;;;;;0.52;0.52;;;19.30;99.90;;;;;;4402455;32;20487;-76
2023/06/17 09:21:16;;;;;;;0.65;0.65;;;19.30;99.90;;;;;;4403940;32;20132;-74
2023/06/17 09:23:41;;;;;;;0.65;0.65;;;19.20;99.90;;;;;;4404623;32;20098;-74
2023/06/17 09:26:07;;;;;;;0.98;0.50;;;19.30;99.90;;;;;;4401521;32;20090;-75
2023/06/17 09:28:37;;;;;;;1.90;1.08;;;19.50;99.90;;;;;;4400350;32;20078;-75
2023/06/17 09:31:04;;;;;;;0.88;0.82;;;19.50;99.90;;;;;;4399796;32;20122;-76
2023/06/17 09:33:29;;;;;;;0.80;0.80;;;19.60;99.90;;;;;;4402322;32;20561;-75
2023/06/17 09:35:59;;;;;;;2.25;1.00;;;19.70;99.90;;;;;;4401107;32;20145;-76
2023/06/17 09:38:27;;;;;;;0.60;0.60;;;19.80;99.90;;;;;;4402091;32;20469;-76
2023/06/17 09:40:54;;;;;;;0.60;0.60;;;20.00;99.90;;;;;;4400254;32;20439;-77
2023/06/17 09:43:26;;;;;;;0.40;0.40;;;20.00;99.90;;;;;;4402500;32;20431;-74
2023/06/17 09:45:55;;;;;;;0.50;0.50;;;20.10;99.90;;;;;;4403391;32;20078;-75
2023/06/17 09:48:32;;;;;;;0.68;0.68;;;20.10;99.90;;;;;;4400295;32;20093;-74
2023/06/17 09:50:58;;;;;;;0.77;0.77;;;20.00;99.90;;;;;;4403883;32;20074;-76
2023/06/17 09:53:29;;;;;;;2.20;1.15;;;20.00;99.90;;;;;;4403418;32;20057;-75
2023/06/17 09:55:57;;;;;;;4.87;1.58;;;20.00;99.90;;;;;;4402537;32;20111;-75
2023/06/17 09:58:25;;;;;;;0.50;0.50;;;19.90;99.90;;;;;;4400364;32;20093;-75
2023/06/17 10:00:52;;;;;;;1.15;0.70;;;19.90;99.90;;;;;;4398103;32;20540;-73
2023/06/17 10:03:20;;;;;;;0.65;0.65;;;19.90;99.90;;;;;;4396946;32;20065;-74
2023/06/17 10:05:54;;;;;;;0.50;0.50;;;19.80;99.90;;;;;;4396329;32;20077;-74
2023/06/17 10:08:21;;;;;;;0.73;0.62;;;19.70;99.90;;;;;;4397520;32;20094;-75
2023/06/17 10:10:48;;;;;;;1.52;0.90;;;19.60;99.90;;;;;;4397931;32;20086;-74
2023/06/17 10:13:17;;;;;;;2.20;1.23;;;19.50;99.90;;;;;;4397757;32;20141;-75
2023/06/17 10:15:43;;;;;;;0.60;0.60;;;19.30;99.90;;;;;;4395889;32;20137;-75
2023/06/17 10:18:10;;;;;;;0.75;0.60;;;19.20;99.90;;;;;;4399661;32;20117;-75
2023/06/17 10:20:36;;;;;;;1.80;0.98;;;19.10;99.90;;;;;;4400331;32;20420;-74
2023/06/17 10:23:03;;;;;;;0.93;0.70;;;19.00;99.90;;;;;;4398342;32;20598;-75
2023/06/17 10:25:28;;;;;;;0.45;0.45;;;19.00;99.90;;;;;;4397823;32;20137;-76
2023/06/17 10:27:54;;;;;;;0.70;0.62;;;18.80;99.90;;;;;;4399283;32;20073;-74
2023/06/17 10:30:26;;;;;;;0.40;0.40;;;18.80;99.90;;;;;;4398835;32;20176;-76
2023/06/17 10:32:54;;;;;;;0.37;0.37;;;18.70;99.90;;;;;;4396809;32;20098;-75
2023/06/17 10:35:20;;;;;;;0.60;0.60;;;18.70;99.90;;;;;;4398560;32;20085;-74
2023/06/17 10:37:48;;;;;;;1.87;1.10;;;18.70;99.90;;;;;;4398586;32;20520;-76
2023/06/17 10:40:23;;;;;;;2.08;0.90;;;18.70;99.90;;;;;;4396190;32;20086;-76
2023/06/17 10:43:06;;;;;;;0.50;0.50;;;18.60;99.90;;;;;;4397602;32;20112;-75
2023/06/17 10:45:49;;;;;;;1.62;1.08;;;18.50;99.90;;;;;;4397270;32;20139;-76
2023/06/17 10:48:34;;;;;;;2.83;1.45;;;18.50;99.90;;;;;;4398468;32;20439;-76
2023/06/17 10:51:01;;;;;;;0.77;0.77;;;18.50;99.90;;;;;;4397708;32;20708;-76
2023/06/17 10:53:29;;;;;;;1.00;0.88;;;18.50;99.90;;;;;;4402684;32;20079;-76
2023/06/17 10:55:56;;;;;;;1.08;0.88;;;18.60;99.90;;;;;;4401096;32;20074;-75
2023/06/17 10:58:22;;;;;;;0.82;0.82;;;18.60;99.90;;;;;;4400696;32;20122;-75
2023/06/17 11:00:57;;;;;;;14.70;0.80;;;18.70;99.90;;;;;;4400409;32;20066;-75
2023/06/17 11:03:30;;;;;;;1.00;0.82;;;18.80;99.90;;;;;;4400858;32;20097;-76
2023/06/17 11:06:04;;;;;;;0.43;0.43;;;18.90;99.90;;;;;;4404857;32;20082;-77
2023/06/17 11:08:34;;;;;;;7.62;1.65;;;19.00;99.90;;;;;;4405318;32;20073;-77
2023/06/17 11:11:12;;;;;;;0.70;0.70;;;19.20;99.90;;;;;;4404183;32;20074;-77
2023/06/17 11:13:40;;;;;;;1.30;0.75;;;19.70;99.90;;;;;;4403160;32;20066;-77
2023/06/17 11:16:06;;;;;;;0.60;0.57;;;20.40;99.90;;;;;;4401590;32;20097;-76
2023/06/17 11:18:36;;;;;;;0.70;0.68;;;20.70;99.90;;;;;;4404826;32;20104;-76
2023/06/17 11:21:03;;;;;;;1.02;0.90;;;21.00;99.90;;;;;;4400837;32;20076;-76
2023/06/17 11:23:30;;;;;;;0.57;0.57;;;21.30;99.90;;;;;;4401809;32;20129;-75
2023/06/17 11:25:55;;;;;;;0.73;0.60;;;21.70;99.90;;;;;;4399529;32;20083;-76
2023/06/17 11:28:23;;;;;;;0.43;0.43;;;22.30;99.90;;;;;;4404271;32;20090;-75
2023/06/17 11:30:49;;;;;;;1.52;0.47;;;23.10;99.90;;;;;;4406094;32;20079;-75
2023/06/17 11:33:19;;;;;;;3.45;1.37;;;23.50;99.90;;;;;;4401546;32;20078;-75
2023/06/17 11:35:48;;;;;;;0.50;0.50;;;23.40;99.90;;;;;;4402972;32;20549;-76
2023/06/17 11:38:16;;;;;;;3.15;0.75;;;22.90;99.90;;;;;;4403949;32;20086;-76
2023/06/17 11:40:42;;;;;;;0.65;0.65;;;22.40;99.90;;;;;;4400509;32;20070;-75
2023/06/17 11:43:09;;;;;;;0.57;0.57;;;22.10;99.90;;;;;;4400775;32;20157;-75
2023/06/17 11:45:34;;;;;;;0.43;0.43;;;21.60;99.90;;;;;;4402979;32;88825;-76
2023/06/17 11:48:02;;;;;;;0.40;0.40;;;21.20;99.90;;;;;;4400504;32;20148;-75
2023/06/17 11:50:30;;;;;;;0.30;0.30;;;20.90;99.90;;;;;;4400916;32;20458;-76
2023/06/17 11:52:57;;;;;;;0.50;0.50;;;20.40;99.90;;;;;;4399771;32;20439;-76
2023/06/17 11:55:32;;;;;;;0.95;0.80;;;19.90;99.90;;;;;;4399419;32;20973;-75
2023/06/17 11:58:00;;;;;;;0.50;0.50;;;19.50;99.90;;;;;;4399981;32;20129;-76
2023/06/17 12:00:28;;;;;;;0.60;0.60;;;19.10;99.90;;;;;;4397312;32;20076;-76
2023/06/17 12:02:56;;;;;;;0.52;0.52;;;18.70;99.90;;;;;;4399269;32;20139;-76
2023/06/17 12:05:26;;;;;;;0.40;0.40;;;18.50;99.90;;;;;;4398257;32;20140;-77
2023/06/17 12:07:51;;;;;;;2.55;0.40;;;18.30;99.90;;;;;;4399019;32;20062;-76
2023/06/17 12:10:17;;;;;;;0.65;0.65;;;18.10;99.90;;;;;;4398303;32;21736;-77
2023/06/17 12:12:43;;;;;;;0.50;0.50;;;17.90;99.90;;;;;;4399740;32;20081;-76
2023/06/17 12:15:09;;;;;;;0.40;0.40;;;17.80;99.90;;;;;;4399088;32;20110;-77
2023/06/17 12:17:40;;;;;;;0.47;0.43;;;17.70;99.90;;;;;;4399009;32;20085;-77
2023/06/17 12:20:13;;;;;;;0.50;0.50;;;17.80;99.90;;;;;;4401343;32;20114;-77
2023/06/17 12:22:38;;;;;;;2.87;0.45;;;17.80;99.90;;;;;;4398666;32;20531;-77
2023/06/17 12:25:04;;;;;;;0.45;0.45;;;17.60;99.90;;;;;;4400879;32;20094;-77
2023/06/17 12:27:31;;;;;;;0.30;0.30;;;17.50;99.90;;;;;;4401353;32;20061;-77
2023/06/17 12:29:59;;;;;;;1.08;0.80;;;17.50;99.90;;;;;;4399310;32;20126;-77
2023/06/17 12:32:24;;;;;;;0.40;0.40;;;17.40;99.90;;;;;;4401178;32;20070;-77
2023/06/17 12:34:51;;;;;;;0.32;0.32;;;17.50;99.90;;;;;;4398551;32;20431;-77
2023/06/17 12:37:19;;;;;;;0.60;0.60;;;17.50;99.90;;;;;;4399704;32;20574;-77
2023/06/17 12:39:45;;;;;;;0.68;0.68;;;17.50;99.90;;;;;;4396459;32;20085;-77
2023/06/17 12:42:12;;;;;;;0.60;0.60;;;17.60;99.90;;;;;;4399907;32;20089;-77
2023/06/17 12:44:37;;;;;;;0.55;0.55;;;17.60;99.90;;;;;;4396810;32;20443;-77
2023/06/17 12:47:03;;;;;;;0.40;0.40;;;17.60;99.90;;;;;;4397556;32;20082;-77